Time;durP1;ratioP1;P1;durP2;ratioP2;P2;SDS_P1;SDS_P2;PMS_P1;PMS_P2;Temp;Humidity;BMP_temperature;BMP_pressure;BME280_temperature;BME280_humidity;BME280_pressure;Samples;Min_cycle;Max_cycle;Signal;HPM_P1;HPM_P2
2022/01/01 00:02:25;;;;;;;76.03;57.00;;;;;;;;;;5035375;28;20041;-77
2022/01/01 00:04:50;;;;;;;118.18;93.75;;;;;;;;;;5017325;28;20046;-78
2022/01/01 00:07:16;;;;;;;82.72;48.33;;;;;;;;;;5035955;28;20059;-77
2022/01/01 00:09:43;;;;;;;114.63;68.95;;;;;;;;;;5017186;28;20574;-78
2022/01/01 00:12:09;;;;;;;95.70;56.97;;;;;;;;;;5017315;28;20025;-77
2022/01/01 00:14:34;;;;;;;87.28;50.75;;;;;;;;;;5017386;28;20021;-77
2022/01/01 00:17:00;;;;;;;100.78;62.05;;;;;;;;;;5035825;28;20044;-77
2022/01/01 00:19:25;;;;;;;66.35;37.92;;;;;;;;;;5035232;28;20044;-77
2022/01/01 00:21:50;;;;;;;87.78;47.53;;;;;;;;;;5035000;28;20066;-78
2022/01/01 00:24:16;;;;;;;62.97;34.70;;;;;;;;;;5017226;28;20388;-78
2022/01/01 00:26:41;;;;;;;130.55;70.63;;;;;;;;;;5017200;28;20152;-79
2022/01/01 00:29:07;;;;;;;103.25;54.65;;;;;;;;;;5035004;28;20118;-77
2022/01/01 00:31:32;;;;;;;114.72;66.43;;;;;;;;;;5035243;28;20534;-78
2022/01/01 00:33:59;;;;;;;76.10;40.03;;;;;;;;;;5035081;28;20863;-78
2022/01/01 00:36:25;;;;;;;51.60;29.33;;;;;;;;;;5034612;28;20025;-77
2022/01/01 00:38:50;;;;;;;79.35;44.88;;;;;;;;;;5034831;28;20075;-77
2022/01/01 00:41:15;;;;;;;76.85;48.97;;;;;;;;;;5016398;28;20052;-78
2022/01/01 00:43:41;;;;;;;26.08;16.10;;;;;;;;;;5035384;28;20052;-78
2022/01/01 00:46:06;;;;;;;45.13;25.63;;;;;;;;;;5035324;28;20474;-77
2022/01/01 00:48:31;;;;;;;54.03;31.67;;;;;;;;;;5035650;28;20025;-77
2022/01/01 00:50:57;;;;;;;64.05;34.58;;;;;;;;;;5016504;28;20017;-77
2022/01/01 00:53:22;;;;;;;34.33;20.77;;;;;;;;;;5035010;28;20154;-77
2022/01/01 00:55:47;;;;;;;55.47;28.77;;;;;;;;;;5017166;28;20075;-77
2022/01/01 00:58:13;;;;;;;39.47;24.83;;;;;;;;;;5035204;28;20127;-77
2022/01/01 01:00:38;;;;;;;27.63;17.05;;;;;;;;;;5017085;28;20021;-77
2022/01/01 01:03:10;;;;;;;21.98;14.18;;;;;;;;;;5034627;28;20041;-77
2022/01/01 01:05:38;;;;;;;56.17;36.65;;;;;;;;;;5034335;28;20498;-77
2022/01/01 01:08:04;;;;;;;30.30;19.35;;;;;;;;;;5016570;28;20031;-77
2022/01/01 01:10:29;;;;;;;26.17;19.23;;;;;;;;;;5016990;28;20029;-77
2022/01/01 01:12:55;;;;;;;26.00;17.02;;;;;;;;;;5017651;28;20024;-77
2022/01/01 01:15:20;;;;;;;46.25;30.60;;;;;;;;;;5034518;28;20459;-77
2022/01/01 01:17:46;;;;;;;42.78;25.48;;;;;;;;;;5016531;28;20025;-78
2022/01/01 01:20:12;;;;;;;86.18;46.47;;;;;;;;;;5016458;28;20118;-77
2022/01/01 01:22:38;;;;;;;63.40;36.08;;;;;;;;;;5016846;28;20040;-78
2022/01/01 01:25:04;;;;;;;89.20;47.92;;;;;;;;;;5034596;28;20017;-77
2022/01/01 01:27:30;;;;;;;109.65;67.28;;;;;;;;;;5035470;28;20021;-78
2022/01/01 01:29:58;;;;;;;114.05;70.38;;;;;;;;;;5016668;28;20025;-78
2022/01/01 01:32:23;;;;;;;133.15;79.43;;;;;;;;;;5016418;28;20025;-77
2022/01/01 01:34:49;;;;;;;113.43;68.40;;;;;;;;;;5016577;28;20467;-78
2022/01/01 01:37:14;;;;;;;83.07;49.78;;;;;;;;;;5034576;28;20013;-78
2022/01/01 01:39:39;;;;;;;59.85;36.20;;;;;;;;;;5034020;28;20118;-78
2022/01/01 01:42:05;;;;;;;49.63;33.17;;;;;;;;;;5016061;28;20123;-78
2022/01/01 01:44:35;;;;;;;41.63;27.17;;;;;;;;;;5016338;28;20029;-78
2022/01/01 01:47:03;;;;;;;38.63;25.55;;;;;;;;;;5016253;28;20032;-77
2022/01/01 01:49:31;;;;;;;39.17;25.98;;;;;;;;;;5034537;28;20459;-77
2022/01/01 01:51:57;;;;;;;46.92;29.75;;;;;;;;;;5017211;28;20021;-78
2022/01/01 01:54:22;;;;;;;45.05;30.77;;;;;;;;;;5019282;28;20414;-80
2022/01/01 01:56:48;;;;;;;41.00;28.33;;;;;;;;;;5037819;28;20032;-77
2022/01/01 01:59:13;;;;;;;35.80;23.15;;;;;;;;;;5019966;28;20106;-78
2022/01/01 02:01:39;;;;;;;53.63;33.80;;;;;;;;;;5038447;28;20476;-77
2022/01/01 02:04:04;;;;;;;40.20;25.65;;;;;;;;;;5037509;28;20758;-77
2022/01/01 02:06:29;;;;;;;49.38;30.73;;;;;;;;;;5019962;28;20033;-77
2022/01/01 02:08:55;;;;;;;41.53;26.10;;;;;;;;;;5019293;28;20025;-79
2022/01/01 02:11:21;;;;;;;35.58;24.35;;;;;;;;;;5038173;28;20036;-77
2022/01/01 02:18:46;;;;;;;14.77;10.15;;;;;;;;;;5037528;28;20108;-77
2022/01/01 02:21:11;;;;;;;65.55;37.22;;;;;;;;;;5037908;28;20518;-78
2022/01/01 02:23:41;;;;;;;43.65;26.92;;;;;;;;;;5019530;28;20491;-78
2022/01/01 02:26:11;;;;;;;31.65;18.63;;;;;;;;;;5037182;28;20491;-78
2022/01/01 02:28:37;;;;;;;25.15;15.15;;;;;;;;;;5019087;28;20025;-78
2022/01/01 02:31:02;;;;;;;24.77;15.85;;;;;;;;;;5037219;28;20029;-77
2022/01/01 02:33:28;;;;;;;22.73;14.15;;;;;;;;;;5019137;28;20079;-78
2022/01/01 02:35:53;;;;;;;21.23;14.27;;;;;;;;;;5037103;28;20024;-78
2022/01/01 02:38:18;;;;;;;41.00;29.95;;;;;;;;;;5037257;28;20452;-78
2022/01/01 02:40:44;;;;;;;25.70;16.75;;;;;;;;;;5018836;28;20387;-78
2022/01/01 02:43:09;;;;;;;51.03;31.45;;;;;;;;;;5036846;28;20053;-77
2022/01/01 02:45:35;;;;;;;33.10;19.85;;;;;;;;;;5037103;28;20455;-77
2022/01/01 02:48:00;;;;;;;28.25;17.50;;;;;;;;;;5036735;28;20051;-77
2022/01/01 02:50:25;;;;;;;21.00;13.27;;;;;;;;;;5036872;28;20021;-77
2022/01/01 02:52:52;;;;;;;21.80;13.05;;;;;;;;;;5036819;28;20025;-77
2022/01/01 02:55:17;;;;;;;14.98;10.77;;;;;;;;;;5018824;28;20451;-77
2022/01/01 02:57:42;;;;;;;27.25;18.00;;;;;;;;;;5036549;28;20100;-77
2022/01/01 03:00:08;;;;;;;17.27;10.88;;;;;;;;;;5018510;28;20475;-77
2022/01/01 03:02:33;;;;;;;14.52;8.75;;;;;;;;;;5018522;28;20391;-78
2022/01/01 03:04:59;;;;;;;11.23;7.72;;;;;;;;;;5019455;28;20024;-78
2022/01/01 03:07:24;;;;;;;14.82;9.10;;;;;;;;;;5018610;28;20434;-77
2022/01/01 03:09:49;;;;;;;17.00;11.40;;;;;;;;;;5018526;28;20058;-77
2022/01/01 03:12:15;;;;;;;17.13;11.05;;;;;;;;;;5037801;28;20021;-77
2022/01/01 03:14:41;;;;;;;21.73;13.50;;;;;;;;;;5018712;28;20032;-77
2022/01/01 03:17:06;;;;;;;19.95;14.15;;;;;;;;;;5017735;28;20036;-78
2022/01/01 03:19:32;;;;;;;53.83;25.98;;;;;;;;;;5036239;28;20094;-77
2022/01/01 03:21:58;;;;;;;51.35;25.00;;;;;;;;;;5036517;28;20025;-78
2022/01/01 03:24:24;;;;;;;46.65;28.00;;;;;;;;;;5017923;28;20079;-77
2022/01/01 03:26:49;;;;;;;40.65;21.25;;;;;;;;;;5036845;28;20060;-78
2022/01/01 03:29:15;;;;;;;31.02;19.42;;;;;;;;;;5018296;28;20020;-77
2022/01/01 03:31:40;;;;;;;30.95;17.48;;;;;;;;;;5035735;28;20048;-77
2022/01/01 03:34:06;;;;;;;19.83;12.27;;;;;;;;;;5036153;28;20025;-77
2022/01/01 03:36:31;;;;;;;23.55;14.90;;;;;;;;;;5018107;28;20013;-78
2022/01/01 03:38:56;;;;;;;23.48;13.48;;;;;;;;;;5017760;28;20029;-78
2022/01/01 03:41:22;;;;;;;27.38;16.05;;;;;;;;;;5017707;28;20059;-78
2022/01/01 03:43:47;;;;;;;19.25;11.38;;;;;;;;;;5036113;28;20159;-78
2022/01/01 03:46:13;;;;;;;11.65;7.22;;;;;;;;;;5035677;28;20021;-77
2022/01/01 03:48:38;;;;;;;19.38;11.05;;;;;;;;;;5037028;28;20063;-77
2022/01/01 03:51:04;;;;;;;18.83;11.50;;;;;;;;;;5036828;28;20025;-77
2022/01/01 03:53:29;;;;;;;13.77;9.50;;;;;;;;;;5017424;28;20025;-78
2022/01/01 03:55:55;;;;;;;18.52;10.60;;;;;;;;;;5050555;28;20024;-77
2022/01/01 03:58:20;;;;;;;20.83;12.27;;;;;;;;;;5017506;28;20103;-77
2022/01/01 04:00:46;;;;;;;26.02;14.27;;;;;;;;;;5035412;28;20024;-77
2022/01/01 04:03:12;;;;;;;21.08;12.93;;;;;;;;;;5035793;28;20036;-77
2022/01/01 04:05:40;;;;;;;23.60;14.02;;;;;;;;;;5034868;28;20031;-77
2022/01/01 04:08:06;;;;;;;33.33;21.75;;;;;;;;;;5034919;28;20021;-78
2022/01/01 04:10:31;;;;;;;32.13;19.23;;;;;;;;;;5036642;28;20465;-77
2022/01/01 04:13:00;;;;;;;24.92;18.52;;;;;;;;;;5034749;28;20052;-78
2022/01/01 04:15:25;;;;;;;29.45;19.00;;;;;;;;;;5034791;28;20872;-77
2022/01/01 04:17:56;;;;;;;30.42;19.65;;;;;;;;;;5035826;28;20100;-78
2022/01/01 04:20:21;;;;;;;27.92;17.88;;;;;;;;;;5034650;28;20019;-77
2022/01/01 04:22:47;;;;;;;52.67;31.92;;;;;;;;;;5017224;28;20036;-77
2022/01/01 04:25:12;;;;;;;35.95;21.20;;;;;;;;;;5017203;28;20020;-78
2022/01/01 04:27:37;;;;;;;32.17;20.90;;;;;;;;;;5035557;28;20025;-77
2022/01/01 04:30:03;;;;;;;25.83;16.30;;;;;;;;;;5035286;28;20021;-78
2022/01/01 04:32:28;;;;;;;48.17;29.52;;;;;;;;;;5034882;28;20029;-77
2022/01/01 04:34:53;;;;;;;75.25;43.22;;;;;;;;;;5035595;28;20426;-77
2022/01/01 04:37:20;;;;;;;82.68;47.97;;;;;;;;;;5016843;28;20075;-77
2022/01/01 04:39:50;;;;;;;95.28;48.65;;;;;;;;;;5018322;28;20023;-77
2022/01/01 04:42:15;;;;;;;123.22;66.55;;;;;;;;;;5035029;28;20132;-78
2022/01/01 04:44:40;;;;;;;116.43;67.47;;;;;;;;;;5016835;28;20127;-77
2022/01/01 04:47:06;;;;;;;85.07;47.47;;;;;;;;;;5034792;28;20405;-78
2022/01/01 04:49:31;;;;;;;34.42;19.60;;;;;;;;;;5016889;28;20115;-77
2022/01/01 04:51:56;;;;;;;19.33;11.73;;;;;;;;;;5035747;28;20108;-78
2022/01/01 04:54:22;;;;;;;32.38;19.58;;;;;;;;;;5035465;28;20017;-77
2022/01/01 04:56:48;;;;;;;30.08;19.75;;;;;;;;;;5034644;28;20067;-77
2022/01/01 04:59:14;;;;;;;24.15;16.55;;;;;;;;;;5034970;28;20021;-77
2022/01/01 05:01:40;;;;;;;18.63;13.68;;;;;;;;;;5017102;28;20055;-77
2022/01/01 05:04:06;;;;;;;16.88;11.20;;;;;;;;;;5016264;28;20060;-78
2022/01/01 05:06:32;;;;;;;15.27;9.60;;;;;;;;;;5035618;28;20800;-78
2022/01/01 05:08:57;;;;;;;20.30;12.60;;;;;;;;;;5035547;28;20499;-76
2022/01/01 05:11:22;;;;;;;18.75;12.23;;;;;;;;;;5017151;28;20100;-78
2022/01/01 05:13:48;;;;;;;23.15;13.70;;;;;;;;;;5016849;28;20028;-77
2022/01/01 05:16:17;;;;;;;22.40;12.82;;;;;;;;;;5016446;28;20025;-77
2022/01/01 05:18:42;;;;;;;18.55;10.55;;;;;;;;;;5034992;28;20025;-78
2022/01/01 05:21:08;;;;;;;22.55;13.07;;;;;;;;;;5034602;28;20438;-78
2022/01/01 05:23:33;;;;;;;24.27;12.75;;;;;;;;;;5016259;28;20025;-78
2022/01/01 05:25:59;;;;;;;19.85;13.05;;;;;;;;;;5016999;28;20029;-78
2022/01/01 05:28:24;;;;;;;17.60;10.52;;;;;;;;;;5020339;28;20025;-79
2022/01/01 05:30:50;;;;;;;46.75;27.67;;;;;;;;;;5038970;28;20040;-78
2022/01/01 05:33:15;;;;;;;49.38;27.30;;;;;;;;;;5038711;28;20071;-78
2022/01/01 05:35:41;;;;;;;33.95;19.17;;;;;;;;;;5020272;28;20025;-78
2022/01/01 05:38:06;;;;;;;36.42;21.08;;;;;;;;;;5019676;28;20079;-77
2022/01/01 05:40:31;;;;;;;46.03;26.35;;;;;;;;;;5020084;28;20020;-77
2022/01/01 05:42:57;;;;;;;35.42;21.73;;;;;;;;;;5020384;28;20499;-77
2022/01/01 05:45:22;;;;;;;33.53;20.20;;;;;;;;;;5020009;28;20028;-78
2022/01/01 05:47:48;;;;;;;41.47;27.33;;;;;;;;;;5020357;28;20072;-77
2022/01/01 05:50:13;;;;;;;44.72;26.85;;;;;;;;;;5038148;28;20056;-78
2022/01/01 05:52:39;;;;;;;57.70;32.40;;;;;;;;;;5019381;28;20099;-77
2022/01/01 05:55:04;;;;;;;41.13;23.40;;;;;;;;;;5019913;28;20021;-77
2022/01/01 05:57:30;;;;;;;33.10;19.55;;;;;;;;;;5038943;28;20071;-77
2022/01/01 05:59:55;;;;;;;24.15;14.95;;;;;;;;;;5019785;28;20972;-77
2022/01/01 06:02:20;;;;;;;16.63;10.52;;;;;;;;;;5019358;28;20749;-79
2022/01/01 06:04:46;;;;;;;13.43;9.70;;;;;;;;;;5037510;28;20213;-77
2022/01/01 06:07:11;;;;;;;16.17;10.65;;;;;;;;;;5019706;28;20028;-79
2022/01/01 06:09:36;;;;;;;11.50;8.23;;;;;;;;;;5021208;28;20086;-77
2022/01/01 06:12:02;;;;;;;10.32;8.05;;;;;;;;;;5019419;28;20062;-77
2022/01/01 06:14:27;;;;;;;16.67;10.60;;;;;;;;;;5020745;28;20028;-77
2022/01/01 06:16:53;;;;;;;20.15;13.13;;;;;;;;;;5037340;28;20025;-77
2022/01/01 06:19:18;;;;;;;17.60;12.13;;;;;;;;;;5037136;28;20066;-78
2022/01/01 06:21:43;;;;;;;20.92;12.15;;;;;;;;;;5019777;28;20060;-77
2022/01/01 06:24:09;;;;;;;19.77;13.27;;;;;;;;;;5038010;28;20075;-78
2022/01/01 06:26:34;;;;;;;19.92;13.73;;;;;;;;;;5037239;28;20024;-77
2022/01/01 06:29:00;;;;;;;29.00;17.67;;;;;;;;;;5019540;28;20379;-78
2022/01/01 06:31:26;;;;;;;16.70;12.35;;;;;;;;;;5019294;28;20036;-77
2022/01/01 06:33:51;;;;;;;47.80;29.73;;;;;;;;;;5037160;28;20021;-77
2022/01/01 06:36:17;;;;;;;17.85;13.25;;;;;;;;;;5038391;28;20025;-78
2022/01/01 06:38:43;;;;;;;51.53;36.10;;;;;;;;;;5018614;28;20021;-78
2022/01/01 06:41:09;;;;;;;165.13;103.82;;;;;;;;;;5036560;28;20059;-77
2022/01/01 06:43:35;;;;;;;185.65;110.20;;;;;;;;;;5038149;28;20677;-77
2022/01/01 06:46:00;;;;;;;152.93;88.45;;;;;;;;;;5019419;28;20036;-77
2022/01/01 06:48:26;;;;;;;138.98;80.05;;;;;;;;;;5036633;28;20028;-79
2022/01/01 06:50:51;;;;;;;144.45;80.78;;;;;;;;;;5036782;28;20021;-79
2022/01/01 06:53:17;;;;;;;152.23;87.85;;;;;;;;;;5018585;28;20043;-79
2022/01/01 06:55:42;;;;;;;138.48;83.13;;;;;;;;;;5018366;28;20027;-79
2022/01/01 06:58:08;;;;;;;126.90;82.25;;;;;;;;;;5018834;28;20365;-77
2022/01/01 07:00:34;;;;;;;105.25;64.85;;;;;;;;;;5019779;28;20052;-79
2022/01/01 07:02:59;;;;;;;76.68;49.97;;;;;;;;;;5036330;28;20677;-77
2022/01/01 07:05:25;;;;;;;63.80;41.63;;;;;;;;;;5018788;28;20079;-79
2022/01/01 07:07:50;;;;;;;261.42;154.85;;;;;;;;;;5018408;28;20040;-78
2022/01/01 07:10:15;;;;;;;141.40;84.45;;;;;;;;;;5018654;28;20021;-79
2022/01/01 07:12:41;;;;;;;187.60;112.32;;;;;;;;;;5036642;28;20039;-79
2022/01/01 07:15:07;;;;;;;69.88;42.50;;;;;;;;;;5035998;28;20430;-79
2022/01/01 07:17:32;;;;;;;60.05;35.35;;;;;;;;;;5036543;28;20120;-79
2022/01/01 07:19:58;;;;;;;81.93;47.10;;;;;;;;;;5036805;28;20120;-79
2022/01/01 07:22:23;;;;;;;37.78;20.65;;;;;;;;;;5018279;28;20013;-79
2022/01/01 07:24:51;;;;;;;36.30;23.70;;;;;;;;;;5018532;28;20056;-79
2022/01/01 07:27:17;;;;;;;26.60;18.05;;;;;;;;;;5018340;28;20150;-79
2022/01/01 07:29:42;;;;;;;32.30;19.30;;;;;;;;;;5035834;28;20100;-79
2022/01/01 07:32:08;;;;;;;245.57;154.15;;;;;;;;;;5018065;28;20021;-79
2022/01/01 07:34:33;;;;;;;235.90;129.35;;;;;;;;;;5036396;28;20456;-79
2022/01/01 07:36:59;;;;;;;100.72;46.88;;;;;;;;;;5036365;28;20033;-79
2022/01/01 07:39:24;;;;;;;68.85;37.63;;;;;;;;;;5017902;28;20075;-79
2022/01/01 07:41:49;;;;;;;154.38;78.78;;;;;;;;;;5017804;28;20144;-77
2022/01/01 07:44:16;;;;;;;103.32;51.45;;;;;;;;;;5017434;28;20076;-79
2022/01/01 07:46:41;;;;;;;154.85;83.38;;;;;;;;;;5017732;28;20068;-79
2022/01/01 07:49:07;;;;;;;101.72;57.97;;;;;;;;;;5017486;28;20028;-79
2022/01/01 07:51:32;;;;;;;68.53;40.20;;;;;;;;;;5017373;28;20032;-80
2022/01/01 07:53:58;;;;;;;61.78;37.88;;;;;;;;;;5036280;28;20063;-79
2022/01/01 07:56:23;;;;;;;59.25;36.65;;;;;;;;;;5018016;28;20021;-80
2022/01/01 07:58:49;;;;;;;68.45;45.65;;;;;;;;;;5017586;28;20040;-79
2022/01/01 08:01:14;;;;;;;69.57;47.30;;;;;;;;;;5035449;28;20025;-79
2022/01/01 08:03:39;;;;;;;108.22;78.85;;;;;;;;;;5035769;28;20717;-79
2022/01/01 08:06:05;;;;;;;42.75;29.70;;;;;;;;;;5017358;28;20027;-80
2022/01/01 08:08:30;;;;;;;34.92;24.00;;;;;;;;;;5017680;28;20825;-79
2022/01/01 08:10:56;;;;;;;51.70;36.75;;;;;;;;;;5017634;28;20032;-79
2022/01/01 08:13:24;;;;;;;49.53;36.47;;;;;;;;;;5035353;28;20037;-80
2022/01/01 08:15:50;;;;;;;79.05;52.78;;;;;;;;;;5034919;28;20017;-80
2022/01/01 08:18:16;;;;;;;102.85;73.35;;;;;;;;;;5034711;28;20017;-79
2022/01/01 08:20:41;;;;;;;82.20;55.85;;;;;;;;;;5036339;28;20029;-80
2022/01/01 08:23:07;;;;;;;69.35;47.72;;;;;;;;;;5017337;28;20059;-80
2022/01/01 08:25:32;;;;;;;44.85;31.60;;;;;;;;;;5016728;28;20316;-79
2022/01/01 08:27:58;;;;;;;51.88;36.80;;;;;;;;;;5018182;28;20077;-81
2022/01/01 08:30:23;;;;;;;61.35;42.83;;;;;;;;;;5017122;28;20079;-79
2022/01/01 08:32:48;;;;;;;42.35;30.75;;;;;;;;;;5016850;28;20024;-80
2022/01/01 08:35:14;;;;;;;42.60;29.80;;;;;;;;;;5017454;28;20052;-79
2022/01/01 08:37:39;;;;;;;38.15;26.17;;;;;;;;;;5018016;28;20471;-77
2022/01/01 08:40:05;;;;;;;43.95;31.85;;;;;;;;;;5016822;28;20028;-79
2022/01/01 08:42:30;;;;;;;50.25;33.67;;;;;;;;;;5034420;28;20278;-80
2022/01/01 08:44:56;;;;;;;42.60;28.25;;;;;;;;;;5017979;28;20068;-77
2022/01/01 08:47:25;;;;;;;31.70;21.42;;;;;;;;;;5016834;28;20020;-80
2022/01/01 08:49:52;;;;;;;28.02;18.83;;;;;;;;;;5035179;28;20458;-79
2022/01/01 08:52:17;;;;;;;31.27;21.10;;;;;;;;;;5035798;28;20476;-79
2022/01/01 08:54:43;;;;;;;39.05;26.33;;;;;;;;;;5016530;28;20025;-79
2022/01/01 08:57:09;;;;;;;66.88;44.22;;;;;;;;;;5016736;28;20113;-79
2022/01/01 08:59:35;;;;;;;23.23;15.65;;;;;;;;;;5016863;28;20064;-79
2022/01/01 09:02:00;;;;;;;20.20;14.90;;;;;;;;;;5038726;28;20076;-79
2022/01/01 09:04:25;;;;;;;16.27;14.07;;;;;;;;;;5020629;28;20471;-78
2022/01/01 09:06:51;;;;;;;16.27;13.70;;;;;;;;;;5038701;28;20517;-80
2022/01/01 09:09:16;;;;;;;25.13;16.75;;;;;;;;;;5020977;28;20052;-79
2022/01/01 09:11:42;;;;;;;32.08;22.90;;;;;;;;;;5020861;28;20135;-79
2022/01/01 09:14:07;;;;;;;31.02;23.58;;;;;;;;;;5038879;28;20036;-79
2022/01/01 09:16:32;;;;;;;31.42;21.70;;;;;;;;;;5020360;28;20024;-79
2022/01/01 09:18:58;;;;;;;50.13;30.58;;;;;;;;;;5020661;28;20020;-79
2022/01/01 09:21:24;;;;;;;113.63;67.25;;;;;;;;;;5020446;28;20063;-80
2022/01/01 09:23:49;;;;;;;183.13;101.97;;;;;;;;;;5020372;28;20033;-79
2022/01/01 09:26:14;;;;;;;186.25;104.20;;;;;;;;;;5020481;28;20479;-78
2022/01/01 09:28:40;;;;;;;100.38;59.63;;;;;;;;;;5038107;28;20025;-79
2022/01/01 09:31:05;;;;;;;79.07;53.90;;;;;;;;;;5020170;28;20449;-79
2022/01/01 09:33:31;;;;;;;95.20;64.22;;;;;;;;;;5038097;28;20028;-79
2022/01/01 09:35:58;;;;;;;121.32;83.63;;;;;;;;;;5021195;28;20036;-79
2022/01/01 09:38:23;;;;;;;130.50;92.22;;;;;;;;;;5038710;28;20108;-78
2022/01/01 09:40:49;;;;;;;106.43;67.40;;;;;;;;;;5038123;28;20105;-77
2022/01/01 09:43:15;;;;;;;44.58;30.58;;;;;;;;;;5020028;28;20029;-77
2022/01/01 09:45:43;;;;;;;26.08;19.83;;;;;;;;;;5019928;28;20487;-77
2022/01/01 09:48:09;;;;;;;42.85;32.65;;;;;;;;;;5039272;28;20036;-77
2022/01/01 09:50:35;;;;;;;42.05;29.45;;;;;;;;;;5038383;28;20082;-77
2022/01/01 09:53:01;;;;;;;52.58;36.85;;;;;;;;;;5021023;28;20340;-76
2022/01/01 09:55:27;;;;;;;32.72;23.67;;;;;;;;;;5020058;28;20531;-76
2022/01/01 09:57:52;;;;;;;64.63;44.95;;;;;;;;;;5038909;28;20021;-76
2022/01/01 10:00:17;;;;;;;66.65;46.20;;;;;;;;;;5038080;28;20452;-77
2022/01/01 10:02:43;;;;;;;53.38;37.72;;;;;;;;;;5037311;28;20107;-78
2022/01/01 10:05:08;;;;;;;75.13;51.10;;;;;;;;;;5020033;28;20700;-77
2022/01/01 10:07:33;;;;;;;59.83;44.85;;;;;;;;;;5038172;28;20461;-77
2022/01/01 10:10:28;;;;;;;41.70;31.50;;;;;;;;;;5020748;28;20021;-77
2022/01/01 10:12:54;;;;;;;34.58;25.38;;;;;;;;;;5027608;28;20045;-77
2022/01/01 10:15:19;;;;;;;33.97;26.13;;;;;;;;;;5037849;28;20482;-77
2022/01/01 10:17:47;;;;;;;23.92;18.13;;;;;;;;;;5037362;28;20025;-77
2022/01/01 10:20:13;;;;;;;23.67;18.35;;;;;;;;;;5019449;28;20029;-77
2022/01/01 10:22:39;;;;;;;29.67;24.98;;;;;;;;;;5019118;28;20112;-76
2022/01/01 10:28:02;;;;;;;28.67;23.25;;;;;;;;;;5037414;28;20075;-77
2022/01/01 10:30:40;;;;;;;21.40;17.20;;;;;;;;;;5019060;28;20032;-76
2022/01/01 10:33:10;;;;;;;20.52;14.73;;;;;;;;;;5019493;28;20029;-76
2022/01/01 10:35:40;;;;;;;20.52;16.33;;;;;;;;;;5037696;28;20028;-79
2022/01/01 10:38:10;;;;;;;26.90;18.92;;;;;;;;;;5019107;28;20025;-79
2022/01/01 10:40:35;;;;;;;29.98;19.65;;;;;;;;;;5036793;28;20055;-78
2022/01/01 10:43:01;;;;;;;32.03;20.63;;;;;;;;;;5037501;28;20422;-79
2022/01/01 10:45:29;;;;;;;48.72;29.98;;;;;;;;;;5038029;28;20461;-78
2022/01/01 10:48:21;;;;;;;37.40;25.45;;;;;;;;;;5019209;28;20035;-78
2022/01/01 10:50:48;;;;;;;57.90;37.83;;;;;;;;;;5019403;28;20407;-79
2022/01/01 10:53:20;;;;;;;27.88;20.15;;;;;;;;;;5018365;28;20071;-80
2022/01/01 10:55:48;;;;;;;63.20;46.25;;;;;;;;;;5019217;28;21231;-78
2022/01/01 10:58:18;;;;;;;32.70;25.67;;;;;;;;;;5036440;28;20021;-79
2022/01/01 11:00:44;;;;;;;37.70;25.27;;;;;;;;;;5036058;28;20033;-79
2022/01/01 11:03:09;;;;;;;35.08;23.15;;;;;;;;;;5019134;28;20043;-79
2022/01/01 11:05:36;;;;;;;39.80;27.20;;;;;;;;;;5018595;28;20021;-78
2022/01/01 11:08:03;;;;;;;30.15;18.65;;;;;;;;;;5036214;28;20021;-79
2022/01/01 11:10:29;;;;;;;31.40;23.15;;;;;;;;;;5036907;28;20032;-79
2022/01/01 11:12:55;;;;;;;42.70;28.45;;;;;;;;;;5036286;28;20025;-79
2022/01/01 11:15:21;;;;;;;40.03;29.13;;;;;;;;;;5037283;28;20123;-78
2022/01/01 11:17:46;;;;;;;50.63;33.58;;;;;;;;;;5018191;28;20032;-80
2022/01/01 11:20:12;;;;;;;36.17;23.98;;;;;;;;;;5017645;28;20452;-79
2022/01/01 11:22:38;;;;;;;42.17;26.00;;;;;;;;;;5035823;28;20044;-79
2022/01/01 11:25:04;;;;;;;28.50;19.63;;;;;;;;;;5036410;28;20017;-79
2022/01/01 11:27:29;;;;;;;37.60;27.58;;;;;;;;;;5018114;28;20112;-79
2022/01/01 11:29:56;;;;;;;55.08;39.83;;;;;;;;;;5018105;28;20453;-79
2022/01/01 11:32:28;;;;;;;29.85;22.25;;;;;;;;;;5036149;28;20021;-79
2022/01/01 11:34:54;;;;;;;27.80;19.02;;;;;;;;;;5036520;28;20028;-79
2022/01/01 11:37:23;;;;;;;39.42;25.08;;;;;;;;;;5035944;28;20047;-79
2022/01/01 11:39:56;;;;;;;25.02;17.48;;;;;;;;;;5036165;28;20056;-78
2022/01/01 11:42:22;;;;;;;28.83;21.15;;;;;;;;;;5017727;28;20152;-78
2022/01/01 11:44:54;;;;;;;28.50;19.65;;;;;;;;;;5035614;28;20131;-79
2022/01/01 11:47:21;;;;;;;21.55;15.98;;;;;;;;;;5019152;28;20025;-79
2022/01/01 11:49:47;;;;;;;25.20;16.52;;;;;;;;;;5017582;28;20695;-78
2022/01/01 11:52:12;;;;;;;22.70;15.88;;;;;;;;;;5036710;28;20451;-78
2022/01/01 11:54:39;;;;;;;21.42;14.48;;;;;;;;;;5018192;28;20028;-79
2022/01/01 11:57:05;;;;;;;19.48;15.45;;;;;;;;;;5017544;28;20029;-78
2022/01/01 11:59:33;;;;;;;22.70;16.08;;;;;;;;;;5036154;28;20750;-79
2022/01/01 12:02:00;;;;;;;31.35;25.10;;;;;;;;;;5034886;28;20025;-78
2022/01/01 12:04:31;;;;;;;27.65;19.67;;;;;;;;;;5035853;28;20076;-77
2022/01/01 12:07:09;;;;;;;18.98;13.30;;;;;;;;;;5036509;28;20058;-78
2022/01/01 12:09:53;;;;;;;22.60;16.63;;;;;;;;;;5036136;28;20031;-77
2022/01/01 12:12:34;;;;;;;22.50;16.55;;;;;;;;;;5035052;28;20021;-79
2022/01/01 12:14:59;;;;;;;30.40;20.25;;;;;;;;;;5034933;28;20063;-79
2022/01/01 12:17:25;;;;;;;20.30;14.73;;;;;;;;;;5035855;28;20028;-79
2022/01/01 12:19:54;;;;;;;16.83;12.15;;;;;;;;;;5016936;28;20108;-77
2022/01/01 12:22:24;;;;;;;18.17;14.13;;;;;;;;;;5035344;28;20079;-79
2022/01/01 12:24:52;;;;;;;21.42;14.77;;;;;;;;;;5017115;28;20426;-78
2022/01/01 12:27:17;;;;;;;18.92;13.75;;;;;;;;;;5034612;28;20071;-77
2022/01/01 12:29:43;;;;;;;28.95;19.50;;;;;;;;;;5034813;28;20025;-78
2022/01/01 12:32:08;;;;;;;26.73;19.30;;;;;;;;;;5035600;28;20052;-78
2022/01/01 12:34:36;;;;;;;22.92;15.80;;;;;;;;;;5034833;28;20433;-79
2022/01/01 12:37:04;;;;;;;20.05;15.52;;;;;;;;;;5034567;28;20036;-78
2022/01/01 12:39:29;;;;;;;21.13;16.35;;;;;;;;;;5034858;28;20021;-77
2022/01/01 12:41:56;;;;;;;20.35;15.70;;;;;;;;;;5035646;28;20044;-78
2022/01/01 12:44:23;;;;;;;26.92;18.83;;;;;;;;;;5035498;28;20037;-78
2022/01/01 12:46:50;;;;;;;21.02;14.43;;;;;;;;;;5034822;28;20025;-77
2022/01/01 12:49:15;;;;;;;17.75;12.00;;;;;;;;;;5036086;28;20738;-78
2022/01/01 12:51:42;;;;;;;31.65;21.33;;;;;;;;;;5034992;28;20032;-79
2022/01/01 12:54:09;;;;;;;31.55;20.35;;;;;;;;;;5034645;28;20339;-78
2022/01/01 12:56:35;;;;;;;29.88;21.92;;;;;;;;;;5016724;28;20036;-78
2022/01/01 12:59:05;;;;;;;34.60;22.25;;;;;;;;;;5035028;28;20025;-78
2022/01/01 13:01:34;;;;;;;31.50;20.77;;;;;;;;;;5034504;28;20021;-78
2022/01/01 13:04:00;;;;;;;23.48;17.15;;;;;;;;;;5034692;28;20036;-79
2022/01/01 13:06:30;;;;;;;31.15;22.83;;;;;;;;;;5016607;28;20032;-78
2022/01/01 13:08:55;;;;;;;;;;;;;;;;;;5017251;28;20116;-79
2022/01/01 13:11:21;;;;;;;23.35;17.45;;;;;;;;;;5034957;28;19995;-78
2022/01/01 13:13:46;;;;;;;26.88;18.58;;;;;;;;;;5034395;28;20021;-77
2022/01/01 13:16:12;;;;;;;21.05;17.15;;;;;;;;;;5016877;28;20069;-78
2022/01/01 13:18:37;;;;;;;17.98;12.18;;;;;;;;;;5016533;28;20112;-78
2022/01/01 13:21:03;;;;;;;33.70;22.42;;;;;;;;;;5034831;28;20021;-79
2022/01/01 13:23:28;;;;;;;23.73;18.10;;;;;;;;;;5034431;28;20041;-78
2022/01/01 13:25:54;;;;;;;29.73;21.65;;;;;;;;;;5034271;28;20124;-77
2022/01/01 13:28:24;;;;;;;27.13;17.75;;;;;;;;;;5035206;28;20033;-78
2022/01/01 13:30:49;;;;;;;28.02;19.25;;;;;;;;;;5016473;28;20112;-78
2022/01/01 13:33:15;;;;;;;28.33;20.42;;;;;;;;;;5016143;28;20560;-78
2022/01/01 13:35:46;;;;;;;22.15;15.25;;;;;;;;;;5016698;28;20029;-78
2022/01/01 13:38:13;;;;;;;32.10;22.00;;;;;;;;;;5034405;28;20025;-78
2022/01/01 13:40:39;;;;;;;33.58;23.17;;;;;;;;;;5034010;28;20025;-78
2022/01/01 13:43:11;;;;;;;20.27;15.65;;;;;;;;;;5016012;28;20053;-79
2022/01/01 13:45:37;;;;;;;21.52;18.42;;;;;;;;;;5016064;28;20052;-78
2022/01/01 13:48:09;;;;;;;16.60;14.00;;;;;;;;;;5017010;28;20053;-78
2022/01/01 13:50:39;;;;;;;17.63;14.27;;;;;;;;;;5038079;28;21063;-78
2022/01/01 13:53:06;;;;;;;21.70;16.33;;;;;;;;;;5019945;28;20028;-79
2022/01/01 13:55:33;;;;;;;22.33;15.15;;;;;;;;;;5038810;28;21200;-78
2022/01/01 13:58:01;;;;;;;26.42;20.52;;;;;;;;;;5019708;28;20025;-78
2022/01/01 14:00:27;;;;;;;26.65;20.40;;;;;;;;;;5019967;28;20904;-78
2022/01/01 14:02:54;;;;;;;25.92;19.40;;;;;;;;;;5019369;28;20550;-79
2022/01/01 14:05:20;;;;;;;24.27;17.52;;;;;;;;;;5037758;28;20067;-78
2022/01/01 14:07:46;;;;;;;34.17;24.33;;;;;;;;;;5037477;28;20021;-77
2022/01/01 14:10:15;;;;;;;30.75;21.30;;;;;;;;;;5019975;28;20588;-78
2022/01/01 14:12:45;;;;;;;38.83;26.70;;;;;;;;;;5037711;28;20017;-78
2022/01/01 14:15:10;;;;;;;;;;;;;;;;;;5038455;28;20096;-75
2022/01/01 14:17:56;;;;;;;54.00;38.37;;;;;;;;;;5037712;28;20043;-77
2022/01/01 14:20:23;;;;;;;42.65;34.78;;;;;;;;;;5038580;28;20256;-78